createdAt,value
2022-10-19T00:01:21.921Z,7.80
2022-10-19T00:03:51.640Z,6.63
2022-10-19T00:06:25.970Z,7.67
2022-10-19T00:08:57.714Z,8.97
2022-10-19T00:11:26.326Z,7.23
2022-10-19T00:13:56.229Z,7.87
2022-10-19T00:16:25.632Z,8.47
2022-10-19T00:18:57.143Z,8.37
2022-10-19T00:21:25.686Z,7.47
2022-10-19T00:23:55.404Z,8.07
2022-10-19T00:26:23.802Z,8.20
2022-10-19T00:28:54.827Z,8.57
2022-10-19T00:31:23.232Z,7.37
2022-10-19T00:33:52.776Z,7.23
2022-10-19T00:36:23.357Z,7.33
2022-10-19T00:38:52.254Z,7.23
2022-10-19T00:41:24.071Z,8.37
2022-10-19T00:43:55.598Z,7.13
2022-10-19T00:46:23.874Z,8.20
2022-10-19T00:48:54.253Z,7.87
2022-10-19T00:51:23.544Z,7.67
2022-10-19T00:53:52.119Z,7.70
2022-10-19T00:56:21.959Z,7.07
2022-10-19T00:58:50.341Z,7.60
2022-10-19T01:01:22.016Z,7.57
2022-10-19T01:03:50.970Z,7.17
2022-10-19T01:06:20.910Z,7.83
2022-10-19T01:08:49.280Z,7.10
2022-10-19T01:11:30.981Z,7.73
2022-10-19T01:14:09.858Z,8.67
2022-10-19T01:16:48.069Z,7.37
2022-10-19T01:19:48.506Z,7.60
2022-10-19T01:22:32.238Z,8.70
2022-10-19T01:25:17.407Z,7.30
2022-10-19T01:27:59.728Z,7.73
2022-10-19T01:30:43.428Z,7.77
2022-10-19T01:33:28.717Z,7.30
2022-10-19T01:36:05.865Z,8.80
2022-10-19T01:38:39.665Z,8.80
2022-10-19T01:41:16.630Z,9.40
2022-10-19T01:43:51.226Z,8.53
2022-10-19T01:46:24.968Z,6.87
2022-10-19T01:48:58.195Z,7.40
2022-10-19T01:51:30.916Z,7.43
2022-10-19T01:54:03.916Z,7.30
2022-10-19T01:56:33.263Z,7.10
2022-10-19T01:59:06.410Z,7.97
2022-10-19T02:01:39.117Z,6.73
2022-10-19T02:04:08.212Z,7.43
2022-10-19T02:06:37.239Z,8.40
2022-10-19T02:09:05.745Z,7.10
2022-10-19T02:11:35.341Z,7.83
2022-10-19T02:14:08.987Z,8.20
2022-10-19T02:16:42.696Z,9.60
2022-10-19T02:19:14.139Z,7.93
2022-10-19T02:21:42.647Z,8.50
2022-10-19T02:24:10.965Z,7.70
2022-10-19T02:26:41.341Z,8.10
2022-10-19T02:29:11.696Z,7.07
2022-10-19T02:31:43.062Z,7.07
2022-10-19T02:34:12.232Z,7.60
2022-10-19T02:36:40.712Z,9.40
2022-10-19T02:39:10.051Z,7.23
2022-10-19T02:41:44.527Z,6.40
2022-10-19T02:44:20.727Z,8.13
2022-10-19T02:46:55.396Z,7.20
2022-10-19T02:49:24.124Z,6.60
2022-10-19T02:52:01.199Z,6.90
2022-10-19T02:54:30.329Z,6.87
2022-10-19T02:56:58.946Z,8.17
2022-10-19T02:59:27.338Z,7.33
2022-10-19T03:01:57.280Z,7.40
2022-10-19T03:04:26.070Z,6.93
2022-10-19T03:06:54.408Z,6.93
2022-10-19T03:09:22.812Z,6.40
2022-10-19T03:11:51.129Z,7.20
2022-10-19T03:14:19.493Z,6.57
2022-10-19T03:16:47.823Z,5.93
2022-10-19T03:19:17.694Z,6.00
2022-10-19T03:21:46.042Z,6.97
2022-10-19T03:24:15.521Z,6.50
2022-10-19T03:26:43.788Z,6.60
2022-10-19T03:29:12.225Z,6.80
2022-10-19T03:31:40.592Z,7.80
2022-10-19T03:34:09.057Z,6.13
2022-10-19T03:36:40.097Z,7.23
2022-10-19T03:39:11.705Z,6.40
2022-10-19T03:41:40.433Z,5.90
2022-10-19T03:44:09.789Z,6.57
2022-10-19T03:46:39.342Z,7.03
2022-10-19T03:49:08.280Z,5.63
2022-10-19T03:51:36.949Z,6.83
2022-10-19T03:54:09.212Z,6.97
2022-10-19T03:56:38.610Z,6.90
2022-10-19T03:59:07.891Z,7.10
2022-10-19T04:01:44.752Z,6.60
2022-10-19T04:04:16.041Z,5.93
2022-10-19T04:06:45.980Z,6.40
2022-10-19T04:09:17.534Z,6.20
2022-10-19T04:11:46.147Z,5.73
2022-10-19T04:14:22.816Z,6.27
2022-10-19T04:17:01.788Z,5.73
2022-10-19T04:19:30.238Z,6.40
2022-10-19T04:21:59.349Z,6.17
2022-10-19T04:24:30.079Z,6.17
2022-10-19T04:26:59.122Z,6.80
2022-10-19T04:29:30.112Z,5.83
2022-10-19T04:32:00.362Z,6.20
2022-10-19T04:34:29.883Z,6.37
2022-10-19T04:37:01.405Z,6.27
2022-10-19T04:39:34.490Z,5.83
2022-10-19T04:42:08.343Z,6.17
2022-10-19T04:44:40.761Z,6.13
2022-10-19T04:47:13.920Z,5.70
2022-10-19T04:49:43.825Z,6.10
2022-10-19T04:52:12.215Z,6.50
2022-10-19T04:54:42.008Z,7.00
2022-10-19T04:57:10.287Z,7.00
2022-10-19T04:59:38.698Z,5.50
2022-10-19T05:02:07.037Z,6.27
2022-10-19T05:04:36.383Z,5.70
2022-10-19T05:07:05.798Z,6.43
2022-10-19T05:09:34.162Z,5.77
2022-10-19T05:12:03.995Z,5.77
2022-10-19T05:14:36.744Z,5.30
2022-10-19T05:17:07.445Z,7.20
2022-10-19T05:19:35.809Z,6.10
2022-10-19T05:22:04.180Z,6.17
2022-10-19T05:24:32.719Z,5.77
2022-10-19T05:27:03.686Z,6.00
2022-10-19T05:29:33.949Z,5.73
2022-10-19T05:32:03.392Z,6.17
2022-10-19T05:34:31.790Z,6.07
2022-10-19T05:37:00.586Z,5.80
2022-10-19T05:39:28.955Z,5.43
2022-10-19T05:41:57.793Z,5.80
2022-10-19T05:44:27.874Z,5.83
2022-10-19T05:46:56.514Z,5.80
2022-10-19T05:49:26.066Z,5.90
2022-10-19T05:51:54.529Z,5.10
2022-10-19T05:54:25.077Z,6.17
2022-10-19T05:56:56.266Z,4.80
2022-10-19T05:59:25.087Z,5.70
2022-10-19T06:01:54.974Z,6.13
2022-10-19T06:04:23.354Z,5.60
2022-10-19T06:06:51.694Z,5.70
2022-10-19T06:09:19.966Z,6.27
2022-10-19T06:11:49.577Z,6.07
2022-10-19T06:14:18.125Z,6.63
2022-10-19T06:16:47.034Z,6.30
2022-10-19T06:19:16.742Z,6.27
2022-10-19T06:21:46.673Z,5.90
2022-10-19T06:24:15.136Z,5.10
2022-10-19T06:26:43.629Z,6.10
2022-10-19T06:29:12.008Z,6.00
2022-10-19T06:31:40.329Z,6.60
2022-10-19T06:34:08.688Z,6.83
2022-10-19T06:36:38.584Z,7.80
2022-10-19T06:39:07.965Z,14.43
2022-10-19T06:41:36.331Z,11.70
2022-10-19T06:44:19.766Z,7.47
2022-10-19T06:46:48.236Z,7.50
2022-10-19T06:49:16.586Z,7.40
2022-10-19T06:51:46.282Z,7.23
2022-10-19T06:54:14.709Z,7.23
2022-10-19T06:56:43.032Z,5.90
2022-10-19T06:59:13.522Z,5.97
2022-10-19T07:01:43.164Z,7.00
2022-10-19T07:04:11.404Z,6.17
2022-10-19T07:06:39.787Z,6.30
2022-10-19T07:09:09.600Z,10.97
2022-10-19T07:11:39.569Z,11.00
2022-10-19T07:14:10.813Z,6.60
2022-10-19T07:16:39.039Z,5.90
2022-10-19T07:19:07.735Z,5.47
2022-10-19T07:21:40.951Z,6.63
2022-10-19T07:24:11.227Z,6.03
2022-10-19T07:26:39.653Z,6.77
2022-10-19T07:29:08.019Z,7.30
2022-10-19T07:31:36.386Z,5.77
2022-10-19T07:34:06.745Z,5.93
2022-10-19T07:36:37.006Z,5.57
2022-10-19T07:39:07.430Z,5.90
2022-10-19T07:41:37.330Z,5.80
2022-10-19T07:44:06.371Z,5.60
2022-10-19T07:46:37.125Z,5.87
2022-10-19T07:49:07.124Z,5.07
2022-10-19T07:51:35.514Z,5.40
2022-10-19T07:54:04.175Z,5.07
2022-10-19T07:56:33.233Z,4.60
2022-10-19T07:59:05.057Z,4.43
2022-10-19T08:01:37.146Z,4.93
2022-10-19T08:06:54.031Z,5.20
2022-10-19T08:09:51.026Z,5.00
2022-10-19T08:12:15.071Z,5.07
2022-10-19T08:14:48.188Z,5.20
2022-10-19T08:17:17.917Z,4.97
2022-10-19T08:19:46.682Z,5.07
2022-10-19T08:22:15.292Z,4.90
2022-10-19T08:24:43.590Z,5.13
2022-10-19T08:27:11.989Z,5.07
2022-10-19T08:29:40.237Z,5.27
2022-10-19T08:32:11.091Z,5.17
2022-10-19T08:34:39.481Z,4.67
2022-10-19T08:37:19.768Z,4.60
2022-10-19T08:39:56.401Z,5.23
2022-10-19T08:42:31.385Z,5.27
2022-10-19T08:45:12.265Z,4.47
2022-10-19T08:47:59.479Z,4.97
2022-10-19T08:50:30.742Z,4.70
2022-10-19T08:53:04.054Z,4.37
2022-10-19T08:55:42.983Z,5.17
2022-10-19T08:58:31.409Z,4.60
2022-10-19T09:01:05.859Z,5.30
2022-10-19T09:03:55.766Z,6.30
2022-10-19T09:06:30.425Z,5.80
2022-10-19T09:09:00.495Z,6.17
2022-10-19T09:11:31.111Z,5.17
2022-10-19T09:14:06.849Z,5.73
2022-10-19T09:16:36.105Z,4.67
2022-10-19T09:19:14.423Z,4.20
2022-10-19T09:21:48.404Z,4.97
2022-10-19T09:24:29.165Z,5.23
2022-10-19T09:27:00.015Z,5.17
2022-10-19T09:29:37.329Z,5.37
2022-10-19T09:32:11.825Z,4.70
2022-10-19T09:34:44.940Z,4.97
2022-10-19T09:37:21.758Z,5.70
2022-10-19T09:39:55.002Z,5.60
2022-10-19T09:42:29.187Z,4.83
2022-10-19T09:44:59.889Z,5.00
2022-10-19T09:47:35.788Z,5.47
2022-10-19T09:50:17.385Z,5.10
2022-10-19T09:52:47.132Z,5.30
2022-10-19T09:55:28.543Z,5.23
2022-10-19T09:58:05.862Z,5.53
2022-10-19T10:00:37.747Z,5.57
2022-10-19T10:03:07.694Z,5.37
2022-10-19T10:05:40.064Z,5.03
2022-10-19T10:08:15.497Z,5.53
2022-10-19T10:10:47.005Z,6.17
2022-10-19T10:13:19.695Z,5.47
2022-10-19T10:15:52.632Z,5.60
2022-10-19T10:18:21.169Z,5.70
2022-10-19T10:21:01.305Z,6.47
2022-10-19T10:23:34.183Z,5.63
2022-10-19T10:26:27.175Z,5.60
2022-10-19T10:28:57.917Z,5.63
2022-10-19T10:31:39.916Z,6.13
2022-10-19T10:34:23.192Z,5.90
2022-10-19T10:37:03.140Z,6.03
2022-10-19T10:39:32.156Z,5.87
2022-10-19T10:42:10.541Z,5.87
2022-10-19T10:44:39.338Z,6.00
2022-10-19T10:47:16.109Z,6.30
2022-10-19T10:49:46.642Z,6.30
2022-10-19T10:52:19.276Z,6.03
2022-10-19T10:55:00.450Z,6.80
2022-10-19T10:57:33.453Z,6.93
2022-10-19T11:00:08.210Z,5.83
2022-10-19T11:02:43.753Z,6.33
2022-10-19T11:05:20.756Z,6.57
2022-10-19T11:07:55.966Z,6.37
2022-10-19T11:10:29.703Z,6.43
2022-10-19T11:13:06.829Z,6.53
2022-10-19T11:15:42.319Z,6.80
2022-10-19T11:18:20.838Z,7.00
2022-10-19T11:20:56.727Z,7.07
2022-10-19T11:23:41.040Z,7.27
2022-10-19T11:26:21.656Z,6.37
2022-10-19T11:29:01.613Z,7.00
2022-10-19T11:31:41.678Z,7.20
2022-10-19T11:34:23.649Z,6.83
2022-10-19T11:37:01.199Z,5.80
2022-10-19T11:39:45.102Z,7.17
2022-10-19T11:42:20.722Z,7.00
2022-10-19T11:45:05.281Z,7.40
2022-10-19T11:47:51.940Z,7.60
2022-10-19T11:50:34.542Z,7.57
2022-10-19T11:53:13.220Z,6.93
2022-10-19T11:55:49.068Z,6.93
2022-10-19T11:58:34.975Z,6.60
2022-10-19T12:01:14.019Z,7.70
2022-10-19T12:04:14.987Z,7.03
2022-10-19T12:06:53.766Z,7.03
2022-10-19T12:09:34.141Z,7.67
2022-10-19T12:12:20.132Z,6.90
2022-10-19T12:14:52.580Z,7.67
2022-10-19T12:17:28.155Z,7.67
2022-10-19T12:20:00.989Z,6.87
2022-10-19T12:22:31.565Z,7.20
2022-10-19T12:25:02.507Z,7.43
2022-10-19T12:27:36.468Z,7.40
2022-10-19T12:30:09.060Z,7.30
2022-10-19T12:32:54.148Z,6.77
2022-10-19T12:35:40.698Z,6.80
2022-10-19T12:38:17.985Z,7.53
2022-10-19T12:40:51.632Z,6.47
2022-10-19T12:43:29.788Z,7.10
2022-10-19T12:46:12.216Z,7.40
2022-10-19T12:48:40.858Z,7.20
2022-10-19T12:51:18.069Z,7.00
2022-10-19T12:53:49.628Z,8.20
2022-10-19T12:56:21.902Z,6.87
2022-10-19T12:58:56.007Z,7.77
2022-10-19T13:01:28.146Z,7.73
2022-10-19T13:04:11.071Z,7.53
2022-10-19T13:06:43.964Z,7.43
2022-10-19T13:09:25.725Z,7.13
2022-10-19T13:12:44.931Z,6.83
2022-10-19T13:15:59.314Z,7.03
2022-10-19T13:19:06.745Z,6.73
2022-10-19T13:22:14.516Z,7.23
2022-10-19T13:24:43.075Z,7.05
2022-10-19T13:27:39.572Z,7.70
2022-10-19T13:30:48.677Z,7.17
2022-10-19T13:33:53.833Z,7.03
2022-10-19T13:36:23.844Z,6.83
2022-10-19T13:39:15.262Z,7.20
2022-10-19T13:41:50.573Z,7.97
2022-10-19T13:44:22.958Z,7.53
2022-10-19T13:47:04.697Z,6.43
2022-10-19T13:49:57.745Z,7.20
2022-10-19T13:52:45.375Z,7.63
2022-10-19T13:55:32.570Z,6.35
2022-10-19T13:58:23.903Z,7.18
2022-10-19T14:01:08.940Z,7.72
2022-10-19T14:03:55.291Z,7.57
2022-10-19T14:06:31.663Z,7.78
2022-10-19T14:09:26.294Z,7.60
2022-10-19T14:12:06.872Z,7.65
2022-10-19T14:19:54.580Z,7.20
2022-10-19T14:22:27.153Z,7.97
2022-10-19T14:25:02.469Z,7.68
2022-10-19T14:27:33.333Z,8.20
2022-10-19T14:30:02.023Z,8.02
2022-10-19T14:32:33.972Z,7.18
2022-10-19T14:35:06.489Z,8.20
2022-10-19T14:37:36.413Z,7.93
2022-10-19T14:40:07.685Z,7.47
2022-10-19T14:42:43.951Z,9.15
2022-10-19T14:45:18.263Z,8.30
2022-10-19T14:47:55.176Z,8.38
2022-10-19T14:50:28.002Z,9.75
2022-10-19T14:53:00.280Z,8.48
2022-10-19T14:55:35.839Z,8.90
2022-10-19T14:58:18.389Z,8.20
2022-10-19T15:00:49.649Z,9.07
2022-10-19T15:03:24.351Z,9.55
2022-10-19T15:05:57.539Z,8.30
2022-10-19T15:08:37.586Z,9.10
2022-10-19T15:11:08.082Z,8.90
2022-10-19T15:13:42.948Z,9.35
2022-10-19T15:16:33.553Z,9.13
2022-10-19T15:19:06.742Z,10.75
2022-10-19T15:21:36.149Z,9.27
2022-10-19T15:24:09.939Z,10.52
2022-10-19T15:26:38.418Z,9.57
2022-10-19T15:29:20.164Z,9.55
2022-10-19T15:31:48.604Z,9.43
2022-10-19T15:34:25.717Z,9.52
2022-10-19T15:36:59.993Z,10.10
2022-10-19T15:39:38.926Z,9.48
2022-10-19T15:42:24.304Z,9.20
2022-10-19T15:44:54.233Z,9.05
2022-10-19T15:47:25.388Z,9.32
2022-10-19T15:50:00.229Z,9.23
2022-10-19T15:52:30.403Z,9.40
2022-10-19T15:55:00.537Z,9.27
2022-10-19T15:57:31.571Z,8.80
2022-10-19T16:00:03.549Z,8.85
2022-10-19T16:02:32.491Z,9.87
2022-10-19T16:05:00.875Z,9.37
2022-10-19T16:07:32.414Z,9.40
2022-10-19T16:10:00.879Z,9.60
2022-10-19T16:12:29.432Z,9.05
2022-10-19T16:14:57.776Z,9.75
2022-10-19T16:17:28.336Z,8.55
2022-10-19T16:19:56.700Z,9.52
2022-10-19T16:22:25.068Z,9.80
2022-10-19T16:24:53.482Z,9.52
2022-10-19T16:27:21.764Z,9.47
2022-10-19T16:29:50.116Z,10.13
2022-10-19T16:32:19.452Z,9.60
2022-10-19T16:34:50.193Z,9.67
2022-10-19T16:37:18.553Z,10.00
2022-10-19T16:39:46.870Z,10.27
2022-10-19T16:42:15.272Z,11.20
2022-10-19T16:44:43.621Z,10.43
2022-10-19T16:47:12.023Z,10.17
2022-10-19T16:49:40.269Z,10.17
2022-10-19T16:52:14.123Z,9.32
2022-10-19T16:54:42.690Z,9.33
2022-10-19T16:57:10.964Z,10.03
2022-10-19T16:59:39.251Z,9.90
2022-10-19T17:02:07.556Z,10.02
2022-10-19T17:04:36.215Z,9.87
2022-10-19T17:07:04.631Z,10.23
2022-10-19T17:09:41.772Z,8.87
2022-10-19T17:12:11.298Z,9.50
2022-10-19T17:14:41.816Z,9.60
2022-10-19T17:17:11.073Z,9.80
2022-10-19T17:19:39.654Z,10.13
2022-10-19T17:22:08.026Z,10.50
2022-10-19T17:24:39.321Z,10.00
2022-10-19T17:27:08.350Z,9.70
2022-10-19T17:29:37.188Z,9.40
2022-10-19T17:32:05.698Z,9.10
2022-10-19T17:34:34.033Z,9.97
2022-10-19T17:37:02.384Z,10.23
2022-10-19T17:39:30.685Z,10.03
2022-10-19T17:42:03.378Z,10.13
2022-10-19T17:44:32.277Z,10.47
2022-10-19T17:47:01.674Z,10.13
2022-10-19T17:49:30.599Z,10.00
2022-10-19T17:51:59.595Z,10.67
2022-10-19T17:54:28.077Z,10.00
2022-10-19T17:56:56.474Z,9.67
2022-10-19T17:59:34.745Z,9.40
2022-10-19T18:02:09.420Z,10.17
2022-10-19T18:04:37.701Z,9.53
2022-10-19T18:07:06.082Z,10.10
2022-10-19T18:09:34.329Z,9.93
2022-10-19T18:12:07.140Z,10.37
2022-10-19T18:14:37.281Z,10.10
2022-10-19T18:17:05.632Z,10.83
2022-10-19T18:19:34.142Z,10.13
2022-10-19T18:22:02.467Z,10.57
2022-10-19T18:24:31.080Z,10.70
2022-10-19T18:26:59.721Z,10.57
2022-10-19T18:29:28.204Z,10.17
2022-10-19T18:31:58.199Z,11.57
2022-10-19T18:34:28.043Z,9.50
2022-10-19T18:36:56.485Z,10.03
2022-10-19T18:39:24.909Z,10.13
2022-10-19T18:41:54.860Z,10.17
2022-10-19T18:44:26.586Z,10.47
2022-10-19T18:46:58.132Z,10.50
2022-10-19T18:49:27.142Z,11.03
2022-10-19T18:51:56.320Z,10.10
2022-10-19T18:54:26.486Z,10.63
2022-10-19T18:56:55.552Z,10.97
2022-10-19T18:59:24.370Z,10.50
2022-10-19T19:01:53.093Z,10.70
2022-10-19T19:04:23.112Z,11.13
2022-10-19T19:06:51.503Z,11.17
2022-10-19T19:09:21.269Z,11.87
2022-10-19T19:11:50.193Z,11.77
2022-10-19T19:14:21.078Z,12.37
2022-10-19T19:16:49.749Z,12.07
2022-10-19T19:19:19.303Z,11.93
2022-10-19T19:21:50.068Z,12.13
2022-10-19T19:24:19.885Z,12.23
2022-10-19T19:26:50.370Z,11.97
2022-10-19T19:29:19.562Z,11.70
2022-10-19T19:31:48.413Z,11.27
2022-10-19T19:34:17.016Z,12.63
2022-10-19T19:36:48.137Z,12.30
2022-10-19T19:39:20.320Z,12.77
2022-10-19T19:41:50.597Z,11.37
2022-10-19T19:44:19.524Z,11.97
2022-10-19T19:46:47.956Z,12.53
2022-10-19T19:49:16.367Z,13.03
2022-10-19T19:51:44.663Z,12.93
2022-10-19T19:54:12.975Z,12.27
2022-10-19T19:56:43.655Z,12.30
2022-10-19T19:59:13.505Z,12.40
2022-10-19T20:01:42.696Z,13.13
2022-10-19T20:04:11.665Z,11.10
2022-10-19T20:06:41.157Z,11.73
2022-10-19T20:09:10.853Z,12.60
2022-10-19T20:11:42.590Z,11.43
2022-10-19T20:14:12.951Z,13.30
2022-10-19T20:16:41.539Z,12.93
2022-10-19T20:19:11.835Z,12.53
2022-10-19T20:21:41.056Z,12.63
2022-10-19T20:24:10.408Z,12.10
2022-10-19T20:26:39.045Z,12.40
2022-10-19T20:29:07.459Z,12.20
2022-10-19T20:31:40.523Z,12.13
2022-10-19T20:34:10.955Z,13.60
2022-10-19T20:36:39.389Z,12.00
2022-10-19T20:39:07.802Z,12.13
2022-10-19T20:41:36.202Z,11.27
2022-10-19T20:44:04.614Z,11.73
2022-10-19T20:46:33.242Z,11.87
2022-10-19T20:49:04.820Z,13.17
2022-10-19T20:51:36.662Z,13.07
2022-10-19T20:54:07.145Z,11.80
2022-10-19T20:56:37.867Z,12.30
2022-10-19T20:59:08.408Z,12.40
2022-10-19T21:01:39.093Z,12.07
2022-10-19T21:04:10.763Z,12.00
2022-10-19T21:06:41.226Z,12.93
2022-10-19T21:09:10.487Z,12.70
2022-10-19T21:11:40.928Z,12.10
2022-10-19T21:14:12.730Z,11.90
2022-10-19T21:16:41.627Z,11.53
2022-10-19T21:19:13.879Z,12.80
2022-10-19T21:21:44.767Z,12.60
2022-10-19T21:24:15.229Z,10.90
2022-10-19T21:26:43.797Z,12.07
2022-10-19T21:29:13.533Z,11.13
2022-10-19T21:31:46.458Z,11.43
2022-10-19T21:34:19.853Z,12.23
2022-10-19T21:36:48.367Z,11.63
2022-10-19T21:39:16.777Z,12.50
2022-10-19T21:41:45.429Z,11.77
2022-10-19T21:44:13.906Z,11.83
2022-10-19T21:46:43.606Z,11.40
2022-10-19T21:49:12.981Z,12.33
2022-10-19T21:51:44.667Z,12.00
2022-10-19T21:54:15.776Z,11.60
2022-10-19T21:56:44.321Z,11.60
2022-10-19T21:59:13.228Z,11.83
2022-10-19T22:01:50.300Z,11.03
2022-10-19T22:04:23.702Z,11.07
2022-10-19T22:06:53.542Z,11.30
2022-10-19T22:09:23.193Z,10.27
2022-10-19T22:11:51.632Z,10.87
2022-10-19T22:14:19.918Z,10.53
2022-10-19T22:16:48.388Z,10.47
2022-10-19T22:19:16.858Z,12.53
2022-10-19T22:21:45.201Z,11.13
2022-10-19T22:24:16.581Z,10.80
2022-10-19T22:26:46.757Z,10.47
2022-10-19T22:29:15.722Z,10.30
2022-10-19T22:31:44.543Z,10.47
2022-10-19T22:34:15.179Z,11.07
2022-10-19T22:36:43.939Z,10.63
2022-10-19T22:39:12.972Z,9.30
2022-10-19T22:41:42.746Z,10.90
2022-10-19T22:44:11.089Z,10.63
2022-10-19T22:46:39.515Z,10.13
2022-10-19T22:51:42.444Z,11.10
2022-10-19T22:54:10.956Z,9.83
2022-10-19T22:56:39.556Z,9.73
2022-10-19T22:59:10.258Z,10.70
2022-10-19T23:01:39.087Z,10.40
2022-10-19T23:04:07.654Z,11.23
2022-10-19T23:06:36.122Z,9.40
2022-10-19T23:09:04.982Z,10.80
2022-10-19T23:11:33.549Z,9.80
2022-10-19T23:14:01.874Z,10.40
2022-10-19T23:16:31.670Z,9.57
2022-10-19T23:18:59.989Z,10.10
2022-10-19T23:21:28.396Z,10.57
2022-10-19T23:23:56.571Z,10.93
2022-10-19T23:26:26.234Z,12.07
2022-10-19T23:28:54.507Z,11.20
2022-10-19T23:31:25.009Z,10.07
2022-10-19T23:33:55.892Z,9.27
2022-10-19T23:36:26.868Z,10.27
2022-10-19T23:38:56.867Z,9.57
2022-10-19T23:41:25.192Z,9.53
2022-10-19T23:43:53.553Z,10.83
2022-10-19T23:46:21.850Z,9.43
2022-10-19T23:48:50.188Z,9.27
2022-10-19T23:51:22.141Z,9.53
2022-10-19T23:53:52.762Z,9.20
2022-10-19T23:56:23.423Z,9.57
2022-10-19T23:58:51.867Z,10.07
